createdAt,value
2018-12-02T00:00:53.438Z,109.80
2018-12-02T00:03:22.845Z,109.77
2018-12-02T00:05:51.934Z,111.40
2018-12-02T00:08:39.866Z,112.20
2018-12-02T00:11:09.001Z,113.13
2018-12-02T00:13:38.153Z,112.20
2018-12-02T00:16:07.326Z,121.53
2018-12-02T00:18:36.586Z,117.90
2018-12-02T00:21:06.183Z,119.73
2018-12-02T00:23:35.336Z,120.33
2018-12-02T00:26:04.415Z,116.13
2018-12-02T00:28:33.514Z,131.20
2018-12-02T00:31:02.739Z,122.00
2018-12-02T00:33:31.922Z,118.43
2018-12-02T00:36:01.058Z,118.97
2018-12-02T00:38:30.231Z,125.13
2018-12-02T00:40:59.260Z,121.37
2018-12-02T00:43:28.326Z,122.00
2018-12-02T00:45:57.397Z,127.00
2018-12-02T00:48:26.565Z,124.80
2018-12-02T00:50:55.681Z,120.53
2018-12-02T00:53:24.814Z,118.33
2018-12-02T00:55:59.825Z,118.33
2018-12-02T00:58:29.023Z,116.93
2018-12-02T01:00:58.090Z,118.80
2018-12-02T01:03:27.201Z,119.63
2018-12-02T01:05:56.366Z,121.77
2018-12-02T01:08:25.442Z,117.27
2018-12-02T01:10:54.589Z,124.07
2018-12-02T01:13:23.746Z,117.53
2018-12-02T01:15:52.894Z,122.57
2018-12-02T01:18:22.009Z,127.33
2018-12-02T01:20:51.520Z,122.90
2018-12-02T01:23:20.568Z,123.93
2018-12-02T01:25:49.649Z,120.93
2018-12-02T01:28:18.714Z,121.17
2018-12-02T01:30:47.802Z,120.77
2018-12-02T01:33:16.865Z,114.40
2018-12-02T01:35:46.075Z,117.40
2018-12-02T01:38:15.131Z,118.83
2018-12-02T01:40:48.068Z,111.40
2018-12-02T01:43:17.117Z,113.00
2018-12-02T01:45:46.157Z,110.07
2018-12-02T01:48:15.299Z,112.13
2018-12-02T01:50:44.341Z,119.60
2018-12-02T01:53:13.447Z,116.27
2018-12-02T01:55:42.510Z,115.43
2018-12-02T01:58:11.617Z,112.93
2018-12-02T02:00:40.717Z,112.60
2018-12-02T02:03:09.879Z,116.40
2018-12-02T02:05:39.025Z,114.43
2018-12-02T02:08:08.071Z,108.00
2018-12-02T02:10:37.247Z,109.90
2018-12-02T02:13:06.334Z,106.43
2018-12-02T02:15:35.535Z,101.20
2018-12-02T02:18:04.738Z,106.57
2018-12-02T02:20:33.774Z,103.37
2018-12-02T02:23:02.858Z,109.80
2018-12-02T02:25:31.941Z,104.77
2018-12-02T02:28:01.058Z,108.37
2018-12-02T02:30:30.578Z,102.13
2018-12-02T02:32:59.712Z,106.33
2018-12-02T02:35:28.804Z,103.13
2018-12-02T02:37:58.343Z,105.13
2018-12-02T02:40:28.710Z,101.43
2018-12-02T02:42:57.874Z,104.03
2018-12-02T02:45:27.062Z,101.37
2018-12-02T02:47:56.176Z,108.90
2018-12-02T02:50:25.705Z,103.40
2018-12-02T02:52:59.560Z,110.67
2018-12-02T02:55:29.062Z,101.03
2018-12-02T02:57:58.114Z,105.37
2018-12-02T03:00:27.832Z,105.50
2018-12-02T03:02:56.903Z,104.53
2018-12-02T03:05:25.948Z,105.10
2018-12-02T03:07:55.332Z,105.13
2018-12-02T03:10:24.419Z,104.40
2018-12-02T03:12:54.569Z,100.17
2018-12-02T03:15:24.279Z,101.03
2018-12-02T03:17:53.313Z,98.23
2018-12-02T03:20:22.910Z,102.20
2018-12-02T03:22:53.736Z,102.27
2018-12-02T03:25:23.704Z,102.57
2018-12-02T03:27:52.762Z,99.63
2018-12-02T03:30:22.626Z,100.37
2018-12-02T03:32:51.798Z,100.37
2018-12-02T03:35:24.779Z,101.20
2018-12-02T03:37:54.667Z,100.20
2018-12-02T03:40:24.513Z,100.43
2018-12-02T03:42:53.785Z,99.97
2018-12-02T03:45:24.704Z,99.50
2018-12-02T03:47:53.802Z,108.10
2018-12-02T03:50:23.358Z,98.50
2018-12-02T03:52:52.548Z,101.20
2018-12-02T03:55:21.653Z,100.50
2018-12-02T03:57:50.788Z,101.80
2018-12-02T04:00:21.450Z,101.97
2018-12-02T04:02:51.021Z,100.23
2018-12-02T04:05:21.640Z,102.87
2018-12-02T04:07:51.227Z,101.53
2018-12-02T04:10:20.599Z,100.83
2018-12-02T04:12:51.334Z,147.23
2018-12-02T04:15:23.129Z,155.17
2018-12-02T04:17:52.284Z,247.37
2018-12-02T04:20:21.573Z,225.03
2018-12-02T04:22:51.439Z,156.57
2018-12-02T04:25:23.422Z,140.27
2018-12-02T04:27:52.517Z,134.77
2018-12-02T04:30:22.117Z,127.83
2018-12-02T04:32:52.703Z,147.40
2018-12-02T04:35:24.514Z,178.87
2018-12-02T04:37:53.612Z,205.10
2018-12-02T04:40:22.655Z,151.80
2018-12-02T04:42:51.706Z,126.13
2018-12-02T04:45:20.830Z,115.10
2018-12-02T04:47:49.975Z,112.87
2018-12-02T04:50:19.895Z,131.97
2018-12-02T04:52:48.978Z,134.93
2018-12-02T04:55:18.114Z,122.97
2018-12-02T04:57:47.215Z,114.90
2018-12-02T05:00:20.067Z,116.40
2018-12-02T05:02:50.788Z,111.80
2018-12-02T05:05:22.735Z,117.20
2018-12-02T05:07:52.087Z,108.17
2018-12-02T05:10:21.507Z,108.17
2018-12-02T05:12:50.953Z,130.63
2018-12-02T05:15:20.848Z,115.30
2018-12-02T05:17:49.897Z,108.67
2018-12-02T05:20:20.894Z,104.37
2018-12-02T05:22:50.028Z,109.83
2018-12-02T05:25:19.310Z,109.67
2018-12-02T05:27:48.315Z,105.60
2018-12-02T05:30:21.367Z,99.10
2018-12-02T05:32:52.172Z,105.93
2018-12-02T05:35:21.263Z,114.93
2018-12-02T05:37:50.573Z,126.20
2018-12-02T05:40:20.626Z,99.70
2018-12-02T05:42:49.825Z,107.37
2018-12-02T05:45:19.295Z,94.57
2018-12-02T05:47:48.418Z,90.83
2018-12-02T05:50:18.379Z,95.40
2018-12-02T05:52:49.522Z,88.53
2018-12-02T05:55:20.826Z,100.27
2018-12-02T05:57:49.933Z,98.20
2018-12-02T06:00:20.018Z,103.53
2018-12-02T06:02:49.055Z,101.00
2018-12-02T06:05:18.095Z,92.07
2018-12-02T06:07:47.150Z,103.03
2018-12-02T06:10:16.885Z,98.13
2018-12-02T06:12:45.902Z,93.17
2018-12-02T06:15:16.739Z,98.27
2018-12-02T06:17:45.782Z,97.53
2018-12-02T06:20:29.095Z,108.03
2018-12-02T06:22:58.450Z,126.23
2018-12-02T06:25:27.593Z,118.57
2018-12-02T06:27:56.674Z,110.33
2018-12-02T06:30:27.433Z,99.00
2018-12-02T06:32:57.477Z,113.23
2018-12-02T06:35:26.722Z,112.30
2018-12-02T06:37:56.505Z,114.07
2018-12-02T06:40:26.550Z,97.70
2018-12-02T06:42:55.605Z,108.97
2018-12-02T06:45:24.725Z,106.47
2018-12-02T06:47:53.851Z,104.87
2018-12-02T06:50:26.602Z,94.93
2018-12-02T06:52:56.329Z,122.00
2018-12-02T06:55:41.505Z,120.37
2018-12-02T06:58:25.057Z,101.87
2018-12-02T07:01:04.071Z,99.30
2018-12-02T07:03:46.782Z,88.23
2018-12-02T07:06:15.885Z,82.90
2018-12-02T07:08:44.968Z,85.80
2018-12-02T07:11:14.069Z,90.10
2018-12-02T07:13:43.125Z,88.73
2018-12-02T07:16:12.210Z,90.00
2018-12-02T07:18:44.603Z,87.67
2018-12-02T07:21:18.967Z,83.53
2018-12-02T07:23:50.866Z,83.77
2018-12-02T07:26:22.000Z,86.77
2018-12-02T07:28:51.064Z,83.90
2018-12-02T07:31:20.160Z,84.77
2018-12-02T07:34:08.978Z,88.83
2018-12-02T07:36:54.533Z,83.07
2018-12-02T07:39:45.713Z,87.87
2018-12-02T07:42:14.942Z,84.27
2018-12-02T07:44:44.137Z,80.50
2018-12-02T07:47:13.189Z,83.70
2018-12-02T07:49:42.346Z,81.47
2018-12-02T07:52:11.421Z,83.10
2018-12-02T07:54:40.501Z,80.83
2018-12-02T07:57:09.698Z,81.20
2018-12-02T07:59:38.857Z,81.80
2018-12-02T08:02:07.905Z,81.83
2018-12-02T08:04:37.051Z,87.40
2018-12-02T08:07:06.312Z,85.20
2018-12-02T08:09:35.341Z,77.60
2018-12-02T08:12:04.682Z,84.03
2018-12-02T08:14:33.764Z,85.53
2018-12-02T08:17:02.865Z,78.30
2018-12-02T08:19:32.049Z,81.40
2018-12-02T08:22:01.151Z,77.30
2018-12-02T08:24:30.213Z,84.23
2018-12-02T08:26:59.278Z,79.53
2018-12-02T08:29:28.358Z,84.87
2018-12-02T08:31:57.420Z,83.47
2018-12-02T08:34:26.497Z,79.60
2018-12-02T08:36:55.808Z,76.40
2018-12-02T08:39:27.116Z,76.97
2018-12-02T08:41:56.145Z,76.23
2018-12-02T08:44:25.227Z,77.60
2018-12-02T08:46:54.330Z,75.47
2018-12-02T08:49:23.347Z,76.23
2018-12-02T08:51:53.322Z,72.40
2018-12-02T08:54:22.682Z,71.40
2018-12-02T08:56:51.881Z,74.80
2018-12-02T08:59:21.039Z,72.77
2018-12-02T09:01:50.118Z,72.80
2018-12-02T09:04:19.166Z,76.40
2018-12-02T09:06:48.233Z,74.43
2018-12-02T09:09:17.438Z,66.80
2018-12-02T09:11:48.517Z,74.13
2018-12-02T09:14:19.683Z,73.57
2018-12-02T09:16:48.729Z,72.30
2018-12-02T09:19:17.855Z,73.67
2018-12-02T09:21:46.935Z,73.60
2018-12-02T09:24:15.994Z,73.23
2018-12-02T09:26:45.034Z,71.77
2018-12-02T09:29:14.129Z,71.67
2018-12-02T09:31:43.206Z,69.10
2018-12-02T09:34:12.248Z,70.10
2018-12-02T09:36:41.401Z,70.87
2018-12-02T09:39:10.585Z,71.53
2018-12-02T09:41:39.650Z,72.53
2018-12-02T09:44:08.719Z,71.03
2018-12-02T09:46:37.777Z,67.67
2018-12-02T09:49:06.920Z,69.43
2018-12-02T09:51:36.004Z,67.73
2018-12-02T09:54:05.498Z,66.07
2018-12-02T09:56:34.578Z,70.77
2018-12-02T09:59:03.675Z,69.87
2018-12-02T10:01:32.792Z,67.40
2018-12-02T10:04:01.851Z,67.27
2018-12-02T10:06:30.953Z,65.67
2018-12-02T10:09:00.027Z,66.77
2018-12-02T10:11:29.082Z,68.60
2018-12-02T10:13:58.143Z,66.37
2018-12-02T10:16:27.266Z,66.63
2018-12-02T10:18:56.275Z,63.20
2018-12-02T10:21:25.366Z,55.13
2018-12-02T10:23:54.432Z,59.77
2018-12-02T10:26:23.533Z,61.77
2018-12-02T10:28:52.668Z,57.27
2018-12-02T10:31:21.750Z,57.20
2018-12-02T10:33:50.786Z,55.33
2018-12-02T10:36:20.138Z,51.47
2018-12-02T10:38:49.206Z,52.93
2018-12-02T10:41:18.205Z,52.73
2018-12-02T10:43:47.320Z,51.83
2018-12-02T10:46:16.334Z,51.80
2018-12-02T10:48:45.648Z,49.73
2018-12-02T10:51:15.055Z,48.40
2018-12-02T10:53:44.197Z,49.83
2018-12-02T10:56:13.193Z,47.63
2018-12-02T10:58:42.237Z,47.00
2018-12-02T11:01:17.841Z,44.70
2018-12-02T11:03:47.840Z,44.30
2018-12-02T11:06:16.901Z,45.33
2018-12-02T11:08:45.916Z,43.10
2018-12-02T11:11:15.049Z,44.47
2018-12-02T11:13:44.118Z,50.63
2018-12-02T11:16:13.234Z,48.87
2018-12-02T11:18:42.271Z,44.33
2018-12-02T11:21:11.485Z,44.27
2018-12-02T11:23:40.493Z,30.70
2018-12-02T11:26:09.548Z,40.83
2018-12-02T11:28:38.630Z,40.23
2018-12-02T11:31:07.733Z,38.97
2018-12-02T11:33:36.796Z,39.10
2018-12-02T11:36:05.922Z,41.90
2018-12-02T11:38:34.963Z,39.93
2018-12-02T11:41:04.899Z,39.77
2018-12-02T11:43:33.908Z,40.37
2018-12-02T11:46:02.920Z,42.10
2018-12-02T11:48:31.984Z,39.93
2018-12-02T11:51:01.035Z,42.73
2018-12-02T11:53:30.099Z,39.30
2018-12-02T11:55:59.171Z,37.90
2018-12-02T11:58:28.186Z,38.33
2018-12-02T12:00:57.183Z,38.77
2018-12-02T12:03:26.250Z,38.47
2018-12-02T12:05:55.266Z,39.73
2018-12-02T12:08:24.297Z,41.13
2018-12-02T12:10:53.436Z,38.17
2018-12-02T12:13:22.527Z,37.13
2018-12-02T12:15:51.566Z,38.53
2018-12-02T12:18:20.631Z,38.40
2018-12-02T12:20:48.823Z,37.63
2018-12-02T12:23:18.065Z,36.30
2018-12-02T12:25:45.761Z,34.80
2018-12-02T12:28:13.473Z,35.93
2018-12-02T12:30:41.137Z,35.93
2018-12-02T12:33:09.657Z,43.27
2018-12-02T12:35:39.475Z,34.87
2018-12-02T12:38:07.129Z,35.40
2018-12-02T12:40:35.953Z,31.17
2018-12-02T12:43:20.328Z,30.63
2018-12-02T12:45:48.037Z,30.53
2018-12-02T12:48:15.729Z,27.80
2018-12-02T12:50:43.385Z,29.17
2018-12-02T12:53:12.205Z,31.80
2018-12-02T12:55:40.802Z,31.60
2018-12-02T12:58:10.094Z,30.63
2018-12-02T13:00:38.811Z,33.13
2018-12-02T13:03:07.665Z,34.70
2018-12-02T13:05:37.121Z,37.77
2018-12-02T13:08:06.941Z,33.87
2018-12-02T13:10:35.552Z,33.30
2018-12-02T13:13:04.286Z,31.20
2018-12-02T13:15:33.898Z,31.33
2018-12-02T13:18:03.446Z,30.50
2018-12-02T13:20:38.328Z,29.47
2018-12-02T13:23:08.225Z,29.73
2018-12-02T13:25:37.410Z,27.43
2018-12-02T13:28:06.877Z,26.87
2018-12-02T13:30:35.665Z,26.93
2018-12-02T13:33:04.361Z,32.50
2018-12-02T13:35:33.021Z,28.83
2018-12-02T13:38:01.527Z,29.27
2018-12-02T13:40:30.174Z,30.10
2018-12-02T13:43:05.703Z,28.83
2018-12-02T13:45:34.257Z,28.37
2018-12-02T13:48:02.102Z,27.43
2018-12-02T13:50:29.888Z,27.73
2018-12-02T13:52:57.566Z,28.57
2018-12-02T13:55:27.558Z,29.20
2018-12-02T13:57:55.346Z,29.83
2018-12-02T14:00:24.286Z,28.17
2018-12-02T14:02:53.509Z,29.00
2018-12-02T14:05:21.257Z,29.17
2018-12-02T14:07:48.968Z,28.77
2018-12-02T14:10:16.667Z,30.63
2018-12-02T14:12:50.049Z,32.87
2018-12-02T14:15:23.265Z,30.87
2018-12-02T14:17:53.399Z,31.43
2018-12-02T14:20:21.207Z,31.50
2018-12-02T14:22:48.968Z,32.07
2018-12-02T14:25:16.759Z,34.87
2018-12-02T14:27:46.297Z,44.27
2018-12-02T14:30:15.909Z,40.53
2018-12-02T14:32:44.029Z,38.87
2018-12-02T14:35:11.846Z,37.63
2018-12-02T14:37:39.630Z,35.67
2018-12-02T14:40:10.536Z,36.47
2018-12-02T14:42:39.005Z,38.97
2018-12-02T14:45:10.997Z,39.63
2018-12-02T14:47:39.066Z,37.43
2018-12-02T14:50:11.894Z,37.80
2018-12-02T14:52:39.729Z,39.27
2018-12-02T14:55:12.006Z,42.03
2018-12-02T14:57:39.689Z,41.47
2018-12-02T15:00:16.970Z,43.37
2018-12-02T15:02:44.744Z,39.60
2018-12-02T15:05:13.121Z,47.60
2018-12-02T15:07:41.786Z,45.53
2018-12-02T15:10:11.950Z,41.60
2018-12-02T15:12:39.650Z,41.87
2018-12-02T15:15:10.046Z,39.33
2018-12-02T15:17:37.730Z,42.57
2018-12-02T15:20:09.355Z,40.50
2018-12-02T15:22:37.178Z,40.33
2018-12-02T15:25:06.226Z,42.83
2018-12-02T15:27:33.954Z,42.30
2018-12-02T15:30:01.726Z,40.37
2018-12-02T15:32:29.410Z,39.10
2018-12-02T15:34:57.155Z,50.03
2018-12-02T15:37:24.970Z,40.27
2018-12-02T15:39:52.754Z,38.13
2018-12-02T15:42:20.467Z,45.93
2018-12-02T15:44:48.178Z,38.27
2018-12-02T15:47:15.867Z,38.27
2018-12-02T15:49:43.647Z,38.60
2018-12-02T15:52:11.373Z,38.60
2018-12-02T15:54:39.174Z,37.67
2018-12-02T15:57:06.865Z,37.10
2018-12-02T15:59:34.625Z,39.13
2018-12-02T16:02:02.309Z,38.20
2018-12-02T16:04:30.465Z,39.03
2018-12-02T16:06:58.693Z,39.37
2018-12-02T16:09:26.878Z,38.57
2018-12-02T16:11:54.873Z,39.87
2018-12-02T16:14:22.672Z,39.93
2018-12-02T16:16:50.505Z,37.97
2018-12-02T16:19:18.234Z,36.93
2018-12-02T16:21:46.070Z,35.70
2018-12-02T16:24:13.799Z,35.17
2018-12-02T16:26:41.516Z,36.40
2018-12-02T16:29:09.238Z,35.10
2018-12-02T16:31:37.017Z,36.23
2018-12-02T16:34:05.039Z,36.80
2018-12-02T16:36:32.765Z,36.23
2018-12-02T16:39:00.486Z,38.00
2018-12-02T16:41:28.266Z,37.50
2018-12-02T16:43:56.040Z,38.10
2018-12-02T16:46:23.749Z,35.97
2018-12-02T16:48:51.488Z,37.83
2018-12-02T16:51:19.375Z,36.57
2018-12-02T16:53:47.098Z,37.60
2018-12-02T16:56:15.976Z,38.53
2018-12-02T16:59:02.462Z,38.73
2018-12-02T17:01:31.878Z,40.20
2018-12-02T17:04:00.721Z,43.90
2018-12-02T17:06:28.467Z,53.37
2018-12-02T17:08:57.509Z,51.47
2018-12-02T17:11:25.234Z,53.83
2018-12-02T17:13:52.981Z,46.43
2018-12-02T17:16:20.701Z,45.53
2018-12-02T17:18:48.478Z,42.80
2018-12-02T17:21:16.266Z,43.23
2018-12-02T17:23:44.083Z,43.40
2018-12-02T17:26:11.833Z,44.20
2018-12-02T17:28:39.733Z,43.07
2018-12-02T17:31:10.278Z,44.13
2018-12-02T17:33:38.100Z,41.90
2018-12-02T17:36:05.949Z,48.40
2018-12-02T17:38:33.689Z,44.67
2018-12-02T17:41:01.483Z,47.27
2018-12-02T17:43:29.266Z,44.97
2018-12-02T17:45:57.110Z,45.80
2018-12-02T17:48:24.877Z,44.07
2018-12-02T17:50:52.693Z,40.33
2018-12-02T17:53:20.405Z,40.23
2018-12-02T17:55:48.125Z,38.17
2018-12-02T17:58:15.956Z,39.27
2018-12-02T18:00:43.751Z,41.03
2018-12-02T18:03:14.330Z,41.50
2018-12-02T18:05:43.715Z,42.10
2018-12-02T18:08:11.577Z,39.80
2018-12-02T18:10:39.366Z,41.77
2018-12-02T18:13:07.152Z,42.50
2018-12-02T18:15:34.994Z,40.23
2018-12-02T18:18:02.959Z,40.70
2018-12-02T18:20:30.801Z,42.43
2018-12-02T18:22:58.507Z,42.30
2018-12-02T18:25:26.214Z,40.93
2018-12-02T18:27:53.958Z,40.87
2018-12-02T18:30:22.553Z,42.03
2018-12-02T18:32:54.949Z,40.30
2018-12-02T18:35:27.181Z,42.67
2018-12-02T18:38:00.282Z,42.23
2018-12-02T18:40:28.170Z,42.97
2018-12-02T18:42:55.934Z,41.83
2018-12-02T18:45:23.702Z,42.97
2018-12-02T18:47:51.586Z,41.13
2018-12-02T18:50:19.301Z,39.23
2018-12-02T18:52:47.053Z,39.13
2018-12-02T18:55:14.735Z,39.30
2018-12-02T18:57:42.452Z,32.53
2018-12-02T19:00:18.471Z,38.53
2018-12-02T19:02:46.836Z,38.57
2018-12-02T19:05:14.613Z,37.57
2018-12-02T19:07:42.382Z,36.63
2018-12-02T19:10:13.205Z,40.30
2018-12-02T19:12:41.078Z,38.43
2018-12-02T19:15:12.765Z,37.47
2018-12-02T19:17:40.542Z,37.37
2018-12-02T19:20:12.659Z,37.77
2018-12-02T19:22:40.465Z,37.27
2018-12-02T19:25:11.860Z,36.87
2018-12-02T19:27:39.574Z,36.93
2018-12-02T19:30:10.459Z,36.00
2018-12-02T19:32:38.162Z,36.83
2018-12-02T19:35:11.565Z,37.07
2018-12-02T19:37:39.361Z,37.97
2018-12-02T19:40:14.861Z,39.13
2018-12-02T19:42:42.601Z,40.13
2018-12-02T19:45:13.673Z,43.70
2018-12-02T19:47:41.424Z,39.47
2018-12-02T19:50:11.593Z,41.33
2018-12-02T19:52:39.293Z,41.97
2018-12-02T19:55:08.592Z,40.83
2018-12-02T19:57:36.388Z,42.37
2018-12-02T20:00:12.328Z,39.70
2018-12-02T20:02:40.077Z,41.77
2018-12-02T20:05:07.822Z,39.47
2018-12-02T20:07:35.670Z,39.53
2018-12-02T20:10:04.542Z,41.07
2018-12-02T20:12:32.347Z,41.67
2018-12-02T20:15:00.204Z,42.80
2018-12-02T20:17:27.951Z,42.37
2018-12-02T20:21:02.870Z,41.37
2018-12-02T20:23:36.250Z,42.30
2018-12-02T20:26:03.961Z,42.57
2018-12-02T20:28:33.554Z,43.63
2018-12-02T20:31:07.138Z,39.43
2018-12-02T20:33:35.258Z,41.77
2018-12-02T20:36:03.392Z,43.83
2018-12-02T20:38:31.302Z,42.30
2018-12-02T20:40:59.196Z,44.37
2018-12-02T20:43:27.041Z,45.27
2018-12-02T20:45:54.755Z,43.33
2018-12-02T20:48:22.675Z,45.40
2018-12-02T20:50:50.546Z,49.33
2018-12-02T20:53:18.283Z,49.63
2018-12-02T20:55:46.006Z,50.20
2018-12-02T20:58:13.710Z,48.77
2018-12-02T21:00:41.462Z,49.00
2018-12-02T21:03:14.770Z,47.47
2018-12-02T21:05:51.573Z,44.37
2018-12-02T21:08:19.258Z,45.30
2018-12-02T21:10:47.408Z,44.93
2018-12-02T21:13:15.322Z,46.77
2018-12-02T21:15:43.380Z,47.20
2018-12-02T21:18:11.448Z,46.53
2018-12-02T21:20:39.836Z,48.27
2018-12-02T21:23:08.082Z,49.83
2018-12-02T21:25:36.034Z,47.57
2018-12-02T21:28:04.385Z,45.70
2018-12-02T21:30:32.073Z,47.10
2018-12-02T21:32:59.800Z,48.47
2018-12-02T21:35:27.567Z,47.17
2018-12-02T21:37:55.676Z,48.17
2018-12-02T21:40:23.454Z,47.60
2018-12-02T21:42:51.303Z,48.13
2018-12-02T21:45:19.187Z,47.60
2018-12-02T21:47:49.088Z,48.30
2018-12-02T21:50:33.027Z,47.83
2018-12-02T21:53:01.221Z,49.87
2018-12-02T21:55:28.979Z,50.20
2018-12-02T21:57:56.777Z,50.70
2018-12-02T22:00:30.109Z,56.23
2018-12-02T22:02:57.890Z,55.00
2018-12-02T22:05:25.553Z,52.00
2018-12-02T22:07:53.501Z,57.77
2018-12-02T22:10:23.485Z,56.77
2018-12-02T22:12:51.263Z,54.80
2018-12-02T22:15:19.019Z,53.47
2018-12-02T22:17:46.767Z,51.20
2018-12-02T22:20:15.482Z,53.23
2018-12-02T22:22:43.065Z,52.13
2018-12-02T22:25:11.718Z,52.80
2018-12-02T22:27:39.373Z,49.60
2018-12-02T22:30:09.457Z,52.07
2018-12-02T22:32:37.439Z,47.20
2018-12-02T22:35:06.957Z,50.67
2018-12-02T22:37:34.715Z,49.67
2018-12-02T22:40:02.497Z,51.10
2018-12-02T22:42:30.170Z,50.63
2018-12-02T22:44:57.846Z,50.70
2018-12-02T22:47:26.107Z,50.83
2018-12-02T22:49:53.738Z,50.93
2018-12-02T22:52:21.705Z,52.13
2018-12-02T22:54:49.346Z,53.50
2018-12-02T22:57:16.996Z,49.17
2018-12-02T22:59:44.608Z,50.73
2018-12-02T23:02:21.757Z,48.97
2018-12-02T23:04:49.654Z,48.93
2018-12-02T23:07:17.571Z,49.87
2018-12-02T23:09:45.289Z,48.50
2018-12-02T23:12:13.042Z,49.93
2018-12-02T23:14:40.872Z,47.40
2018-12-02T23:17:21.565Z,46.13
2018-12-02T23:19:49.235Z,47.90
2018-12-02T23:22:17.020Z,47.13
2018-12-02T23:24:44.785Z,47.60
2018-12-02T23:27:12.418Z,47.63
2018-12-02T23:29:40.079Z,49.27
2018-12-02T23:32:07.967Z,47.30
2018-12-02T23:34:35.619Z,47.50
2018-12-02T23:37:03.385Z,49.50
2018-12-02T23:39:31.158Z,48.80
2018-12-02T23:41:58.911Z,49.23
2018-12-02T23:44:26.658Z,47.07
2018-12-02T23:46:54.443Z,50.23
2018-12-02T23:49:22.110Z,49.27
2018-12-02T23:51:49.762Z,49.70
2018-12-02T23:54:17.523Z,48.87
2018-12-02T23:56:45.196Z,49.60
2018-12-02T23:59:12.928Z,49.20
